Time;durP1;ratioP1;P1;durP2;ratioP2;P2;SDS_P1;SDS_P2;PMS_P1;PMS_P2;Temp;Humidity;BMP_temperature;BMP_pressure;BME280_temperature;BME280_humidity;BME280_pressure;Samples;Min_cycle;Max_cycle;Signal;HPM_P1;HPM_P2
2022/01/19 00:01:02;;;;;;;11.32;5.32;;;;;;;10.36;100.00;101653.44;5029296;28;20080;-74
2022/01/19 00:03:33;;;;;;;9.13;5.85;;;;;;;10.38;100.00;101659.56;5033981;28;20124;-73
2022/01/19 00:06:02;;;;;;;8.35;5.30;;;;;;;10.36;100.00;101651.72;5041254;28;20518;-73
2022/01/19 00:08:30;;;;;;;9.98;5.47;;;;;;;10.32;100.00;101649.81;5044480;28;20086;-74
2022/01/19 00:10:59;;;;;;;7.88;5.40;;;;;;;10.30;100.00;101653.16;5031624;28;20049;-75
2022/01/19 00:13:28;;;;;;;6.85;4.55;;;;;;;10.31;100.00;101650.66;5031010;28;20125;-73
2022/01/19 00:15:56;;;;;;;8.82;5.10;;;;;;;10.30;100.00;101648.84;5031635;28;20053;-72
2022/01/19 00:18:26;;;;;;;8.23;4.90;;;;;;;10.27;100.00;101649.56;5031500;28;20076;-72
2022/01/19 00:20:57;;;;;;;7.60;4.93;;;;;;;10.22;100.00;101648.50;5033172;28;20061;-72
2022/01/19 00:23:26;;;;;;;8.90;4.55;;;;;;;10.20;100.00;101647.53;5030724;28;20544;-72
2022/01/19 00:25:56;;;;;;;8.07;4.90;;;;;;;10.21;100.00;101643.22;5031381;28;20053;-73
2022/01/19 00:28:26;;;;;;;7.57;4.50;;;;;;;10.20;100.00;101650.13;5030803;28;20140;-73
2022/01/19 00:30:55;;;;;;;6.88;4.50;;;;;;;10.19;100.00;101650.94;5032071;28;20108;-73
2022/01/19 00:33:23;;;;;;;7.43;4.43;;;;;;;10.18;100.00;101643.97;5030149;28;20466;-74
2022/01/19 00:35:53;;;;;;;6.82;5.00;;;;;;;10.19;100.00;101647.44;5029407;28;20050;-72
2022/01/19 00:38:23;;;;;;;7.45;4.50;;;;;;;10.15;100.00;101649.03;5031175;28;20054;-74
2022/01/19 00:40:54;;;;;;;7.88;4.90;;;;;;;10.04;100.00;101635.59;5030351;28;20060;-74
2022/01/19 00:43:24;;;;;;;6.78;4.70;;;;;;;10.14;100.00;101647.25;5031285;28;20048;-72
2022/01/19 00:45:53;;;;;;;7.38;4.13;;;;;;;10.13;100.00;101655.84;5031583;28;20085;-74
2022/01/19 00:48:22;;;;;;;6.05;3.90;;;;;;;10.13;100.00;101655.84;5032681;28;20123;-73
2022/01/19 00:50:51;;;;;;;7.50;4.72;;;;;;;10.15;100.00;101659.38;5031092;28;20099;-74
2022/01/19 00:53:19;;;;;;;8.18;4.85;;;;;;;10.17;100.00;101655.16;5032087;28;20048;-72
2022/01/19 00:55:50;;;;;;;6.30;4.20;;;;;;;10.16;100.00;101650.78;5033793;28;20087;-72
2022/01/19 00:58:18;;;;;;;7.18;4.25;;;;;;;10.11;100.00;101656.56;5032309;28;20045;-72
2022/01/19 01:00:47;;;;;;;6.07;4.40;;;;;;;10.09;100.00;101658.22;5031555;28;20069;-73
2022/01/19 01:03:16;;;;;;;6.10;4.10;;;;;;;10.08;100.00;101652.16;5031654;28;20053;-73
2022/01/19 01:05:45;;;;;;;8.48;5.32;;;;;;;10.06;100.00;101651.19;5042177;28;20045;-72
2022/01/19 01:08:13;;;;;;;7.30;4.35;;;;;;;10.02;100.00;101645.00;5040944;28;20410;-73
2022/01/19 01:10:43;;;;;;;7.13;4.63;;;;;;;9.97;100.00;101635.25;5033347;28;20076;-73
2022/01/19 01:13:28;;;;;;;6.72;4.22;;;;;;;9.92;100.00;101640.22;5029566;28;20041;-71
2022/01/19 01:16:04;;;;;;;11.88;5.25;;;;;;;9.90;100.00;101631.50;5029896;28;20045;-73
2022/01/19 01:18:35;;;;;;;7.55;5.45;;;;;;;9.92;100.00;101635.06;5029459;28;20080;-72
2022/01/19 01:21:04;;;;;;;9.48;5.28;;;;;;;9.95;100.00;101634.31;5029704;28;20132;-72
2022/01/19 01:23:35;;;;;;;13.82;5.97;;;;;;;9.95;100.00;101639.47;5029880;28;20557;-70
2022/01/19 01:26:14;;;;;;;15.43;8.48;;;;;;;9.96;100.00;101641.22;5029461;28;20099;-72
2022/01/19 01:28:44;;;;;;;17.55;7.68;;;;;;;9.95;100.00;101637.75;5016355;28;20499;-72
2022/01/19 01:31:25;;;;;;;15.02;6.72;;;;;;;9.94;100.00;101637.69;5032317;28;20514;-71
2022/01/19 01:33:54;;;;;;;11.63;6.88;;;;;;;9.95;100.00;101644.66;5015918;28;20053;-72
2022/01/19 01:36:22;;;;;;;13.48;7.18;;;;;;;9.96;100.00;101647.28;5029510;28;20612;-71
2022/01/19 01:38:51;;;;;;;9.70;5.65;;;;;;;9.96;100.00;101643.81;5029593;28;20446;-71
2022/01/19 01:41:19;;;;;;;9.98;6.43;;;;;;;9.93;100.00;101643.69;5029816;28;20050;-71
2022/01/19 01:43:50;;;;;;;9.68;6.00;;;;;;;9.92;100.00;101645.38;5032167;28;20111;-71
2022/01/19 01:46:30;;;;;;;10.35;5.90;;;;;;;9.91;100.00;101647.91;5030005;28;20410;-71
2022/01/19 01:48:59;;;;;;;16.48;6.57;;;;;;;9.85;100.00;101644.22;5029925;28;20491;-71
2022/01/19 01:54:13;;;;;;;9.55;5.97;;;;;;;9.81;100.00;101647.47;5029713;28;20106;-72
2022/01/19 01:56:42;;;;;;;9.98;5.75;;;;;;;9.81;100.00;101646.59;5029560;28;20049;-72
2022/01/19 01:59:12;;;;;;;8.70;5.43;;;;;;;9.81;100.00;101654.34;5029371;28;20505;-72
2022/01/19 02:01:41;;;;;;;10.68;5.47;;;;;;;9.71;100.00;101634.03;5029721;28;20045;-71
2022/01/19 02:04:09;;;;;;;8.13;5.60;;;;;;;9.79;100.00;101654.25;5036723;28;20051;-72
2022/01/19 02:06:53;;;;;;;8.38;5.05;;;;;;;9.78;100.00;101657.69;5034977;28;20046;-72
2022/01/19 02:09:25;;;;;;;8.63;4.95;;;;;;;9.76;100.00;101656.72;5014788;28;20073;-71
2022/01/19 02:23:17;;;;;;;10.57;5.30;;;;;;;9.75;100.00;101673.00;5032819;28;20098;-72
2022/01/19 02:25:46;;;;;;;9.07;4.75;;;;;;;9.77;100.00;101671.41;5035743;28;20514;-72
2022/01/19 02:31:34;;;;;;;9.68;5.22;;;;;;;9.78;100.00;101683.53;5034681;28;20526;-73
2022/01/19 02:42:30;;;;;;;12.00;7.07;;;;;;;9.66;100.00;101688.09;5034818;28;20065;-73
2022/01/19 02:50:30;;;;;;;12.45;6.97;;;;;;;9.69;100.00;101697.69;5032859;28;20053;-73
2022/01/19 02:53:00;;;;;;;13.13;7.28;;;;;;;9.65;100.00;101696.66;5033023;28;20053;-73
2022/01/19 02:55:29;;;;;;;11.77;7.07;;;;;;;9.65;100.00;101701.84;5034288;28;20045;-73
2022/01/19 02:57:58;;;;;;;12.75;7.07;;;;;;;9.65;100.00;101701.84;5032807;28;20502;-73
2022/01/19 03:08:47;;;;;;;13.82;6.63;;;;;;;9.55;100.00;101707.34;5046772;28;20556;-71
2022/01/19 03:11:18;;;;;;;13.50;7.10;;;;;;;9.50;100.00;101714.00;5025794;28;20629;-71
2022/01/19 03:13:47;;;;;;;13.57;6.22;;;;;;;9.50;100.00;101712.28;5033523;28;20107;-72
2022/01/19 03:16:18;;;;;;;12.70;7.03;;;;;;;9.50;100.00;101706.25;5035393;28;20107;-72
2022/01/19 03:18:46;;;;;;;11.27;6.30;;;;;;;9.50;100.00;101716.56;5035415;28;20049;-72
2022/01/19 03:21:15;;;;;;;13.35;6.53;;;;;;;9.49;100.00;101709.66;5033114;28;20055;-72
2022/01/19 03:23:46;;;;;;;13.23;6.05;;;;;;;9.48;100.00;101718.19;5032906;28;20107;-72
2022/01/19 03:26:14;;;;;;;11.75;6.68;;;;;;;9.50;100.00;101727.78;5032478;28;20049;-72
2022/01/19 03:28:43;;;;;;;10.88;6.15;;;;;;;9.50;100.00;101725.22;5031953;28;20050;-71
2022/01/19 03:31:11;;;;;;;10.80;6.38;;;;;;;9.49;100.00;101727.72;5033050;28;20057;-72
2022/01/19 03:33:40;;;;;;;11.30;6.68;;;;;;;9.48;100.00;101728.53;5017308;28;20057;-72
2022/01/19 03:36:09;;;;;;;11.68;6.57;;;;;;;9.47;100.00;101731.94;5030845;28;20081;-73
2022/01/19 03:38:37;;;;;;;12.32;6.43;;;;;;;9.46;100.00;101728.47;5032867;28;20045;-72
2022/01/19 03:41:08;;;;;;;10.77;6.88;;;;;;;9.48;100.00;101731.13;5019950;28;20075;-72
2022/01/19 03:43:36;;;;;;;10.00;6.35;;;;;;;9.47;100.00;101730.22;5031601;28;20073;-72
2022/01/19 03:46:13;;;;;;;12.93;6.65;;;;;;;9.46;100.00;101731.06;5031746;28;20081;-72
2022/01/19 03:48:50;;;;;;;13.40;7.35;;;;;;;9.49;100.00;101738.06;5032372;28;20053;-73
2022/01/19 03:51:19;;;;;;;11.82;6.75;;;;;;;9.48;100.00;101736.28;5031429;28;20055;-72
2022/01/19 03:53:47;;;;;;;13.93;6.32;;;;;;;9.46;100.00;101732.72;5031348;28;20376;-74
2022/01/19 03:56:19;;;;;;;12.48;6.13;;;;;;;9.42;100.00;101730.00;5031542;28;20081;-74
2022/01/19 03:58:47;;;;;;;10.25;6.43;;;;;;;9.41;100.00;101728.25;5032139;28;20081;-74
2022/01/19 04:01:16;;;;;;;11.00;5.95;;;;;;;9.42;100.00;101721.38;5027981;28;20057;-74
2022/01/19 04:04:06;;;;;;;8.45;5.15;;;;;;;9.39;100.00;101723.78;5034947;28;20048;-73
2022/01/19 04:06:53;;;;;;;8.65;5.43;;;;;;;9.35;100.00;101727.06;5037002;28;20127;-74
2022/01/19 04:09:22;;;;;;;10.18;5.28;;;;;;;9.28;100.00;101724.94;5016454;28;20053;-74
2022/01/19 04:11:52;;;;;;;11.48;5.47;;;;;;;9.24;100.00;101716.19;5031045;28;20068;-72
2022/01/19 04:14:25;;;;;;;9.07;5.28;;;;;;;9.24;100.00;101716.19;5030293;28;20061;-73
2022/01/19 04:16:54;;;;;;;7.63;5.25;;;;;;;9.25;100.00;101717.94;5030522;28;20045;-73
2022/01/19 04:19:29;;;;;;;8.95;4.70;;;;;;;9.24;100.00;101716.19;5030517;28;20103;-73
2022/01/19 04:21:59;;;;;;;9.73;4.65;;;;;;;9.23;100.00;101727.28;5030471;28;20123;-74
2022/01/19 04:24:28;;;;;;;11.43;5.38;;;;;;;9.16;100.00;101733.88;5030637;28;20049;-73
2022/01/19 04:29:51;;;;;;;14.30;6.68;;;;;;;9.16;100.00;101736.47;5030794;28;20075;-73
2022/01/19 04:32:33;;;;;;;10.52;5.70;;;;;;;9.15;100.00;101728.63;5029272;28;20061;-74
2022/01/19 04:35:05;;;;;;;9.35;5.32;;;;;;;9.13;100.00;101730.22;5030658;28;20049;-74
2022/01/19 04:37:46;;;;;;;11.80;6.28;;;;;;;9.15;100.00;101738.94;5032943;28;20136;-74
2022/01/19 04:46:08;;;;;;;15.75;7.93;;;;;;;9.16;100.00;101751.03;5030198;28;20183;-74
2022/01/19 05:03:08;;;;;;;17.98;9.75;;;;;;;9.15;100.00;101762.19;4967794;28;20082;-73
2022/01/19 05:05:46;;;;;;;18.02;8.18;;;;;;;9.14;100.00;101773.31;5016626;28;20046;-73
2022/01/19 05:08:22;;;;;;;16.88;8.35;;;;;;;9.15;100.00;101772.50;5040430;28;20052;-73
2022/01/19 05:13:36;;;;;;;14.15;8.10;;;;;;;9.17;100.00;101760.56;5029628;28;20048;-75
2022/01/19 05:16:07;;;;;;;12.73;7.30;;;;;;;9.15;100.00;101757.03;5029774;28;20056;-75
2022/01/19 05:18:35;;;;;;;15.88;8.68;;;;;;;9.13;100.00;101756.06;5029364;28;20110;-75
2022/01/19 05:21:05;;;;;;;15.65;7.80;;;;;;;9.15;100.00;101759.59;5029712;28;20123;-74
2022/01/19 05:23:33;;;;;;;16.38;8.00;;;;;;;9.12;100.00;101747.44;5028744;28;20052;-75
2022/01/19 05:26:05;;;;;;;15.25;7.80;;;;;;;9.18;100.00;101762.34;5029751;28;20136;-75
2022/01/19 05:28:34;;;;;;;14.75;7.63;;;;;;;9.17;100.00;101764.03;5029819;28;20164;-75
2022/01/19 05:31:02;;;;;;;14.88;7.88;;;;;;;9.17;100.00;101766.63;5030425;28;20049;-75
2022/01/19 05:33:32;;;;;;;14.82;7.53;;;;;;;9.17;100.00;101753.72;5029317;28;20491;-76
2022/01/19 05:36:01;;;;;;;18.23;7.97;;;;;;;9.18;100.00;101758.03;5031783;28;20677;-75
2022/01/19 05:38:29;;;;;;;15.68;7.95;;;;;;;9.20;100.00;101763.31;5029577;28;20081;-75
2022/01/19 05:40:58;;;;;;;15.63;7.90;;;;;;;9.20;100.00;101755.56;5029538;28;20053;-75
2022/01/19 05:43:27;;;;;;;14.23;7.85;;;;;;;9.20;100.00;101760.72;5028651;28;20463;-75
2022/01/19 05:45:55;;;;;;;14.10;7.50;;;;;;;9.18;100.00;101772.66;5029280;28;20060;-75
2022/01/19 05:48:24;;;;;;;16.70;8.73;;;;;;;9.18;100.00;101764.91;5028956;28;20107;-75
2022/01/19 05:50:54;;;;;;;18.60;8.35;;;;;;;9.20;100.00;101763.31;5029166;28;20103;-74
2022/01/19 05:53:23;;;;;;;14.90;8.32;;;;;;;9.20;100.00;101784.84;5031854;28;20092;-75
2022/01/19 05:55:51;;;;;;;16.40;7.72;;;;;;;9.23;100.00;101795.34;5033819;28;20087;-74
2022/01/19 05:58:20;;;;;;;15.30;7.97;;;;;;;9.21;100.00;101786.63;5032665;28;20496;-74
2022/01/19 06:00:49;;;;;;;13.55;7.95;;;;;;;9.23;100.00;101786.69;5033435;28;20054;-74
2022/01/19 06:03:17;;;;;;;19.73;8.98;;;;;;;9.26;100.00;101796.31;5032302;28;20049;-74
2022/01/19 06:05:46;;;;;;;19.05;9.60;;;;;;;9.25;100.00;101791.94;5045177;28;20511;-73
2022/01/19 06:08:39;;;;;;;18.55;9.43;;;;;;;9.26;100.00;101786.88;5043769;28;20085;-74
2022/01/19 06:11:06;;;;;;;;;;;;;;;9.26;100.00;101784.28;5025933;28;20049;-74
2022/01/19 06:13:35;;;;;;;15.85;6.85;;;;;;;9.25;100.00;101794.53;5032547;28;19929;-74
2022/01/19 06:16:04;;;;;;;12.85;6.47;;;;;;;9.23;100.00;101799.59;5032381;28;20049;-74
2022/01/19 06:18:34;;;;;;;13.70;6.72;;;;;;;9.23;100.00;101797.03;5033031;28;20510;-74
2022/01/19 06:21:02;;;;;;;13.07;6.53;;;;;;;9.21;100.00;101791.78;5032564;28;20049;-74
2022/01/19 06:23:32;;;;;;;12.73;5.43;;;;;;;9.20;100.00;101776.22;5031453;28;20176;-75
2022/01/19 06:26:01;;;;;;;11.13;5.43;;;;;;;9.14;100.00;101783.63;5032543;28;20111;-75
2022/01/19 06:28:29;;;;;;;11.80;5.78;;;;;;;9.09;100.00;101785.97;5031926;28;20392;-74
2022/01/19 06:30:58;;;;;;;12.52;5.75;;;;;;;9.08;100.00;101791.09;5034362;28;20049;-74
2022/01/19 06:33:26;;;;;;;13.18;5.15;;;;;;;9.08;100.00;101793.66;5035223;28;20057;-73
2022/01/19 06:35:55;;;;;;;12.77;5.45;;;;;;;9.10;100.00;101795.50;5033558;28;20582;-74
2022/01/19 06:38:24;;;;;;;10.48;5.43;;;;;;;9.08;100.00;101793.66;5032337;28;20049;-75
2022/01/19 06:40:54;;;;;;;9.60;5.88;;;;;;;9.10;100.00;101799.81;5032749;28;20061;-73
2022/01/19 06:43:22;;;;;;;10.65;5.80;;;;;;;9.11;100.00;101799.84;5032059;28;20081;-73
2022/01/19 06:45:52;;;;;;;10.07;5.32;;;;;;;9.12;100.00;101793.03;5032686;28;20045;-73
2022/01/19 06:48:20;;;;;;;9.95;5.50;;;;;;;9.13;100.00;101797.38;5032055;28;20094;-74
2022/01/19 06:50:49;;;;;;;9.88;5.63;;;;;;;9.13;100.00;101799.94;5032927;28;20046;-74
2022/01/19 06:53:17;;;;;;;9.93;5.35;;;;;;;9.13;100.00;101807.69;5032570;28;20057;-73
2022/01/19 06:55:46;;;;;;;8.85;4.93;;;;;;;9.14;100.00;101807.78;5032666;28;20110;-73
2022/01/19 06:58:16;;;;;;;10.40;4.97;;;;;;;9.15;100.00;101801.81;5032377;28;20049;-73
2022/01/19 07:00:45;;;;;;;9.23;5.43;;;;;;;9.15;100.00;101806.97;5032271;28;20084;-72
2022/01/19 07:03:20;;;;;;;11.00;5.78;;;;;;;9.10;100.00;101804.97;5032974;28;20049;-73
2022/01/19 07:05:56;;;;;;;8.75;4.57;;;;;;;9.06;100.00;101805.59;5044267;28;20042;-73
2022/01/19 07:08:25;;;;;;;11.73;5.15;;;;;;;9.07;100.00;101797.94;5043099;28;20049;-73
2022/01/19 07:10:53;;;;;;;12.05;6.35;;;;;;;9.11;100.00;101796.41;5032596;28;20102;-72
2022/01/19 07:13:24;;;;;;;11.50;5.72;;;;;;;9.11;100.00;101796.41;5032213;28;20529;-73
2022/01/19 07:15:52;;;;;;;13.93;6.50;;;;;;;9.12;100.00;101800.78;5019320;28;20474;-74
2022/01/19 07:18:21;;;;;;;21.45;7.38;;;;;;;9.15;100.00;101806.09;5032526;28;20045;-74
2022/01/19 07:20:49;;;;;;;11.63;6.75;;;;;;;9.16;100.00;101805.25;5032340;28;20045;-74
2022/01/19 07:23:18;;;;;;;9.77;5.93;;;;;;;9.15;100.00;101813.84;5032593;28;20041;-73
2022/01/19 07:25:46;;;;;;;11.82;6.57;;;;;;;9.16;100.00;101818.16;5032262;28;20053;-74
2022/01/19 07:28:15;;;;;;;14.73;6.45;;;;;;;9.17;100.00;101809.63;5032839;28;20108;-72
2022/01/19 07:30:45;;;;;;;10.93;6.90;;;;;;;9.17;100.00;101813.09;5036287;28;20107;-74
2022/01/19 07:33:14;;;;;;;14.07;7.60;;;;;;;9.19;100.00;101818.34;5031852;28;20045;-73
2022/01/19 07:35:42;;;;;;;10.70;6.00;;;;;;;9.18;100.00;101819.16;5031967;28;20049;-74
2022/01/19 07:38:11;;;;;;;12.00;6.15;;;;;;;9.20;100.00;101820.13;5031682;28;20514;-74
2022/01/19 07:40:39;;;;;;;14.13;6.90;;;;;;;9.21;100.00;101822.78;5032248;28;20462;-74
2022/01/19 07:43:08;;;;;;;13.10;6.63;;;;;;;9.22;100.00;101826.25;5032157;28;20053;-74
2022/01/19 07:45:37;;;;;;;10.65;5.63;;;;;;;9.21;100.00;101832.25;5031980;28;20077;-74
2022/01/19 07:48:10;;;;;;;12.85;5.88;;;;;;;9.22;100.00;101818.50;5032154;28;20050;-74
2022/01/19 07:50:39;;;;;;;13.88;6.20;;;;;;;9.20;100.00;101807.19;5018247;28;20502;-74
2022/01/19 07:53:08;;;;;;;12.02;5.55;;;;;;;9.19;100.00;101802.84;5031256;28;20075;-74
2022/01/19 07:55:37;;;;;;;16.13;5.80;;;;;;;9.18;100.00;101793.31;5031637;28;20045;-74
2022/01/19 07:58:06;;;;;;;12.23;6.22;;;;;;;9.17;100.00;101783.81;5031715;28;20057;-74
2022/01/19 08:00:35;;;;;;;13.95;5.78;;;;;;;9.18;100.00;101775.25;5031763;28;20122;-74
2022/01/19 08:03:03;;;;;;;12.57;5.80;;;;;;;9.18;100.00;101781.28;5031597;28;20053;-73
2022/01/19 08:05:34;;;;;;;11.27;5.80;;;;;;;9.17;100.00;101784.69;5017253;28;20080;-74
2022/01/19 08:08:03;;;;;;;13.68;6.88;;;;;;;9.18;100.00;101786.44;5040947;28;20072;-75
2022/01/19 08:10:32;;;;;;;15.25;6.40;;;;;;;9.20;100.00;101799.44;5034845;28;20071;-74
2022/01/19 08:13:03;;;;;;;10.45;5.68;;;;;;;9.16;100.00;101797.50;5031402;28;20056;-74
2022/01/19 08:15:32;;;;;;;13.15;6.32;;;;;;;9.14;100.00;101792.28;5031074;28;20088;-74
2022/01/19 08:18:01;;;;;;;12.25;6.53;;;;;;;9.15;100.00;101783.72;5019004;28;20133;-74
2022/01/19 08:20:29;;;;;;;13.77;6.70;;;;;;;9.16;100.00;101779.44;5031778;28;20138;-74
2022/01/19 08:22:59;;;;;;;14.23;6.70;;;;;;;9.16;100.00;101788.09;5030922;28;20129;-74
2022/01/19 08:25:28;;;;;;;11.20;5.80;;;;;;;9.12;100.00;101785.28;5031451;28;20494;-74
2022/01/19 08:27:56;;;;;;;15.05;6.55;;;;;;;9.12;100.00;101811.97;5031073;28;20046;-74
2022/01/19 08:30:25;;;;;;;9.48;6.05;;;;;;;9.15;100.00;101821.56;5031415;28;20076;-74
2022/01/19 08:32:54;;;;;;;12.02;6.55;;;;;;;9.16;100.00;101825.91;5034683;28;20132;-75
2022/01/19 08:35:22;;;;;;;14.55;6.43;;;;;;;9.16;100.00;101823.34;5031644;28;20172;-76
2022/01/19 08:37:51;;;;;;;12.90;7.03;;;;;;;9.14;100.00;101831.03;5029844;28;20041;-75
2022/01/19 08:40:26;;;;;;;11.30;7.32;;;;;;;9.15;100.00;101837.94;5030602;28;20058;-75
2022/01/19 08:42:54;;;;;;;13.00;6.75;;;;;;;9.17;100.00;101835.47;5031654;28;20091;-75
2022/01/19 08:45:24;;;;;;;13.98;7.88;;;;;;;9.18;100.00;101845.84;5030480;28;20129;-74
2022/01/19 08:47:53;;;;;;;14.60;7.35;;;;;;;9.19;100.00;101842.47;5030557;28;20061;-74
2022/01/19 08:50:21;;;;;;;11.43;6.53;;;;;;;9.20;100.00;101857.16;5031020;28;20126;-74
2022/01/19 08:52:51;;;;;;;11.15;6.20;;;;;;;9.21;100.00;101852.91;5030333;28;20049;-74
2022/01/19 08:55:21;;;;;;;11.15;6.10;;;;;;;9.23;100.00;101849.59;5030993;28;20484;-73
2022/01/19 08:57:51;;;;;;;10.48;6.18;;;;;;;9.26;100.00;101843.69;5030670;28;20053;-73
2022/01/19 09:00:20;;;;;;;10.85;6.20;;;;;;;9.24;100.00;101847.88;5031014;28;20157;-74
2022/01/19 09:02:49;;;;;;;10.65;5.43;;;;;;;9.23;100.00;101846.09;5030257;28;20081;-74
2022/01/19 09:05:18;;;;;;;11.07;5.65;;;;;;;9.20;100.00;101835.59;5044761;28;20047;-74
2022/01/19 09:07:46;;;;;;;12.38;6.03;;;;;;;9.20;100.00;101831.31;5037224;28;20041;-74
2022/01/19 09:10:16;;;;;;;10.57;5.60;;;;;;;9.17;100.00;101825.13;5037421;28;20049;-73
2022/01/19 09:12:46;;;;;;;13.95;6.03;;;;;;;9.18;100.00;101826.88;5029859;28;20053;-73
2022/01/19 09:15:18;;;;;;;10.38;5.90;;;;;;;9.18;100.00;101829.47;5030352;28;20499;-73
2022/01/19 09:17:46;;;;;;;11.07;5.65;;;;;;;9.18;100.00;101832.06;5030387;28;20085;-73
2022/01/19 09:20:16;;;;;;;8.88;5.38;;;;;;;9.19;100.00;101839.00;5030188;28;20092;-73
2022/01/19 09:22:45;;;;;;;11.95;6.35;;;;;;;9.20;100.00;101854.56;5029935;28;20494;-73
2022/01/19 09:25:15;;;;;;;10.80;5.82;;;;;;;9.20;100.00;101851.97;5031417;28;20053;-74
2022/01/19 09:27:43;;;;;;;11.82;5.72;;;;;;;9.19;100.00;101839.88;5031660;28;20046;-74
2022/01/19 09:30:16;;;;;;;9.40;5.20;;;;;;;9.18;100.00;101837.22;5032110;28;20053;-73
2022/01/19 09:32:49;;;;;;;14.20;6.10;;;;;;;9.19;100.00;101839.00;5030838;28;20077;-73
2022/01/19 09:35:23;;;;;;;11.52;6.25;;;;;;;9.18;100.00;101832.94;5030577;28;20077;-74
2022/01/19 09:37:52;;;;;;;11.18;6.47;;;;;;;9.19;100.00;101826.09;5030759;28;20049;-73
2022/01/19 09:40:21;;;;;;;10.55;5.45;;;;;;;9.14;100.00;101828.44;5029558;28;20054;-73
2022/01/19 09:42:50;;;;;;;11.35;6.18;;;;;;;9.19;100.00;101834.72;5030041;28;20076;-74
2022/01/19 09:45:20;;;;;;;11.73;5.70;;;;;;;9.19;100.00;101841.59;5029823;28;20057;-74
2022/01/19 09:47:49;;;;;;;11.60;5.47;;;;;;;9.19;100.00;101852.81;5029875;28;20049;-74
2022/01/19 09:50:17;;;;;;;11.00;5.53;;;;;;;9.18;100.00;101853.59;5030463;28;20107;-73
2022/01/19 09:52:46;;;;;;;11.82;5.38;;;;;;;9.18;100.00;101850.13;5015018;28;20116;-73
2022/01/19 09:55:16;;;;;;;11.20;4.80;;;;;;;9.15;100.00;101847.41;5029712;28;20534;-74
2022/01/19 09:57:45;;;;;;;11.50;6.43;;;;;;;9.16;100.00;101844.91;5029541;28;20107;-74
2022/01/19 10:00:14;;;;;;;11.95;5.82;;;;;;;9.17;100.00;101840.63;5030405;28;20053;-74
2022/01/19 10:02:44;;;;;;;9.77;5.28;;;;;;;9.16;100.00;101849.16;5029616;28;20510;-73
2022/01/19 10:05:13;;;;;;;10.73;5.88;;;;;;;9.12;100.00;101844.66;5044035;28;20085;-74
2022/01/19 10:07:42;;;;;;;11.23;5.63;;;;;;;9.12;100.00;101842.09;5035435;28;20442;-74
2022/01/19 10:10:11;;;;;;;10.88;6.28;;;;;;;9.12;100.00;101867.91;5037270;28;20061;-74
2022/01/19 10:18:33;;;;;;;11.20;5.85;;;;;;;9.08;100.00;101861.69;4949838;28;20444;-74
2022/01/19 10:21:12;;;;;;;10.70;5.13;;;;;;;9.06;100.00;101852.06;4949794;28;20075;-74
2022/01/19 10:23:42;;;;;;;11.20;5.63;;;;;;;9.04;100.00;101859.72;4993073;28;20491;-74
2022/01/19 10:26:12;;;;;;;10.98;4.97;;;;;;;9.04;100.00;101853.69;5032161;28;20108;-74
2022/01/19 10:29:03;;;;;;;13.70;5.25;;;;;;;9.01;100.00;101857.00;5030146;28;20050;-75
2022/01/19 10:31:33;;;;;;;11.85;5.13;;;;;;;9.01;100.00;101863.03;5030789;28;20057;-75
2022/01/19 10:34:21;;;;;;;11.93;4.47;;;;;;;9.01;100.00;101865.63;5030009;28;20407;-75
2022/01/19 10:36:51;;;;;;;9.93;5.18;;;;;;;9.01;100.00;101870.78;5030224;28;20100;-75
2022/01/19 10:39:23;;;;;;;8.68;5.25;;;;;;;9.04;100.00;101875.22;5032266;28;20068;-75
2022/01/19 10:42:02;;;;;;;8.65;4.97;;;;;;;9.05;100.00;101882.19;5033339;28;20129;-75
2022/01/19 10:44:37;;;;;;;8.85;4.60;;;;;;;9.05;100.00;101891.59;5032324;28;20072;-74
2022/01/19 10:47:06;;;;;;;10.43;5.10;;;;;;;9.07;100.00;101900.31;5032855;28;20050;-75
2022/01/19 10:49:54;;;;;;;8.88;5.25;;;;;;;9.04;100.00;101900.16;5032945;28;20126;-75
2022/01/19 10:52:30;;;;;;;9.85;4.72;;;;;;;9.04;100.00;101905.31;5032414;28;20518;-74
2022/01/19 10:54:59;;;;;;;10.57;4.60;;;;;;;8.98;100.00;101898.16;5033087;28;20049;-74
2022/01/19 10:57:30;;;;;;;10.43;4.97;;;;;;;9.04;100.00;101915.66;5032618;28;20053;-74
2022/01/19 11:00:22;;;;;;;10.90;4.88;;;;;;;8.99;100.00;101916.28;5033135;28;20220;-75
2022/01/19 11:02:53;;;;;;;12.68;4.40;;;;;;;8.97;100.00;101915.31;5020788;28;20050;-74
2022/01/19 11:05:44;;;;;;;9.27;4.75;;;;;;;8.97;100.00;101909.25;5046869;28;20108;-74
2022/01/19 11:08:13;;;;;;;7.07;4.25;;;;;;;8.92;100.00;101914.16;5043316;28;20055;-74
2022/01/19 11:10:47;;;;;;;10.05;4.82;;;;;;;8.89;100.00;101906.28;5035161;28;20053;-75
2022/01/19 11:13:25;;;;;;;12.68;5.25;;;;;;;8.88;100.00;101907.06;5031824;28;20049;-75
2022/01/19 11:15:53;;;;;;;9.20;5.38;;;;;;;8.89;100.00;101906.28;5032715;28;20045;-74
2022/01/19 11:18:25;;;;;;;11.68;4.78;;;;;;;8.92;100.00;101910.72;5032333;28;20053;-74
2022/01/19 11:20:56;;;;;;;9.63;4.67;;;;;;;8.91;100.00;101917.56;5033050;28;20041;-74
2022/01/19 11:23:32;;;;;;;8.20;4.15;;;;;;;8.90;100.00;101913.19;5035213;28;20060;-74
2022/01/19 11:26:05;;;;;;;8.68;4.93;;;;;;;8.95;100.00;101922.06;5040803;28;20562;-74
2022/01/19 11:28:37;;;;;;;11.75;4.50;;;;;;;8.95;100.00;101922.06;5048757;28;20057;-74
2022/01/19 11:31:08;;;;;;;9.27;4.18;;;;;;;8.95;100.00;101927.22;5044983;28;20672;-74
2022/01/19 11:33:44;;;;;;;12.73;4.95;;;;;;;8.95;100.00;101929.81;5040273;28;20053;-74
2022/01/19 11:36:24;;;;;;;10.23;4.25;;;;;;;8.95;100.00;101911.75;5036671;28;20486;-74
2022/01/19 11:38:54;;;;;;;8.93;4.90;;;;;;;8.99;100.00;101920.56;5032671;28;20049;-74
2022/01/19 11:41:45;;;;;;;7.55;4.45;;;;;;;8.98;100.00;101916.22;5034402;28;20053;-75
2022/01/19 11:44:17;;;;;;;9.18;4.97;;;;;;;8.99;100.00;101934.34;5037406;28;20045;-74
2022/01/19 11:46:48;;;;;;;7.63;3.97;;;;;;;8.99;100.00;101931.75;5045070;28;20103;-74
2022/01/19 11:49:18;;;;;;;11.50;4.70;;;;;;;8.99;100.00;101924.03;5048483;28;20048;-74
2022/01/19 11:51:56;;;;;;;9.75;4.65;;;;;;;8.99;100.00;101917.97;5041992;28;20052;-74
2022/01/19 11:54:33;;;;;;;10.55;5.05;;;;;;;9.02;100.00;101918.13;5041277;28;20150;-74
2022/01/19 11:57:16;;;;;;;13.60;5.28;;;;;;;9.00;100.00;101914.56;5034862;28;20479;-74
2022/01/19 12:00:10;;;;;;;9.30;4.78;;;;;;;8.96;100.00;101905.78;5033829;28;20084;-74
2022/01/19 12:02:41;;;;;;;13.55;4.60;;;;;;;8.98;100.00;101911.06;5027026;28;20091;-74
2022/01/19 12:05:28;;;;;;;10.05;4.57;;;;;;;8.98;100.00;101906.78;5037141;28;20114;-74
2022/01/19 12:08:01;;;;;;;10.55;4.93;;;;;;;8.97;100.00;101910.13;5031410;28;20128;-74
2022/01/19 12:10:45;;;;;;;;;;;;;;;8.97;100.00;101912.72;5031742;28;20045;-74
2022/01/19 12:13:31;;;;;;;13.20;4.55;;;;;;;8.99;100.00;101913.69;5031534;28;19951;-75
2022/01/19 12:16:07;;;;;;;8.15;4.80;;;;;;;9.01;100.00;101909.50;5031452;28;20041;-75
2022/01/19 12:18:52;;;;;;;8.60;4.60;;;;;;;9.03;100.00;101909.59;5031417;28;20110;-75
2022/01/19 12:21:39;;;;;;;10.00;4.10;;;;;;;9.06;100.00;101914.03;5029497;28;20045;-75
2022/01/19 12:24:24;;;;;;;10.20;4.90;;;;;;;9.05;100.00;101920.91;5030457;28;20074;-74
2022/01/19 12:27:04;;;;;;;11.20;4.25;;;;;;;9.04;100.00;101918.22;5031633;28;20557;-74
2022/01/19 12:29:44;;;;;;;10.60;4.18;;;;;;;9.02;100.00;101913.88;5031003;28;20422;-74
2022/01/19 12:32:47;;;;;;;7.90;4.10;;;;;;;9.01;100.00;101911.22;5032359;28;20085;-74
2022/01/19 12:35:22;;;;;;;11.32;4.45;;;;;;;9.02;100.00;101918.13;5017858;28;20072;-74
2022/01/19 12:37:53;;;;;;;13.05;4.85;;;;;;;8.98;100.00;101908.47;5030669;28;20067;-74
2022/01/19 12:40:45;;;;;;;11.05;4.65;;;;;;;9.00;100.00;101915.50;5031387;28;20049;-74
2022/01/19 12:43:29;;;;;;;12.30;5.20;;;;;;;9.00;100.00;101910.31;5027181;28;20181;-74
2022/01/19 12:45:59;;;;;;;9.73;4.88;;;;;;;9.05;100.00;101909.66;5030833;28;20115;-74
2022/01/19 12:48:39;;;;;;;10.48;4.63;;;;;;;8.95;100.00;101891.09;5030927;28;20053;-74
2022/01/19 12:51:08;;;;;;;8.50;4.57;;;;;;;9.02;100.00;101908.72;5031739;28;20479;-75